Glenville, Connecticut
Current Conditions -  °F | °C
As of 4:56 AM on Friday 19 Dec 2014 (Local Time) from KHPN Reporting Station
Broken Clouds Broken Clouds  
Wind Chill: -3°   Ceiling: 4000
Heat Index:   Visibility: 10mi
Dew Point: -4°   Wind: 13mph
Humidity: 64%   Direction: 310°NW
Pressure: 29.94"   Gusts: NA
Location:  41.0864°N, 73.6612°W
Report Text: KHPN 190956Z 31011KT 10SM BKN040 02/M04 A2994 RMK AO2 SLP144 T00171044
Loading
Personal Weather Stations






























Interactive Weather Map New forecast layout! Learn more

10-Day Weather Forecast

Advertisements
Track Severe Weather on mobile